Time;durP1;ratioP1;P1;durP2;ratioP2;P2;SDS_P1;SDS_P2;PMS_P1;PMS_P2;Temp;Humidity;BMP_temperature;BMP_pressure;BME280_temperature;BME280_humidity;BME280_pressure;Samples;Min_cycle;Max_cycle;Signal;HPM_P1;HPM_P2
2023/09/04 00:00:28;;;;;;;3.72;2.53;;;17.30;99.90;;;;;;4996717;28;20126;-69
2023/09/04 00:02:54;;;;;;;5.60;2.90;;;17.20;99.90;;;;;;4997237;28;20054;-69
2023/09/04 00:05:19;;;;;;;7.15;2.53;;;17.20;99.90;;;;;;4997524;28;20030;-69
2023/09/04 00:07:45;;;;;;;4.95;2.55;;;17.30;99.90;;;;;;4997520;28;20091;-64
2023/09/04 00:10:12;;;;;;;5.20;3.17;;;17.20;99.90;;;;;;4996762;28;20038;-64
2023/09/04 00:12:38;;;;;;;5.15;2.83;;;17.20;99.90;;;;;;4996354;28;20033;-64
2023/09/04 00:15:04;;;;;;;6.32;2.75;;;17.10;99.90;;;;;;4996688;28;20027;-70
2023/09/04 00:17:30;;;;;;;7.35;3.50;;;17.10;99.90;;;;;;4996657;28;20049;-70
2023/09/04 00:19:56;;;;;;;6.20;2.85;;;17.00;99.90;;;;;;4996521;28;20121;-70
2023/09/04 00:22:22;;;;;;;7.93;3.30;;;17.00;99.90;;;;;;4996386;28;20019;-70
2023/09/04 00:24:48;;;;;;;10.52;2.65;;;16.90;99.90;;;;;;4999914;28;20029;-64
2023/09/04 00:27:14;;;;;;;4.20;2.83;;;16.90;99.90;;;;;;5001148;28;20117;-64
2023/09/04 00:29:39;;;;;;;3.30;2.70;;;17.00;99.90;;;;;;5000360;28;20057;-69
2023/09/04 00:32:06;;;;;;;5.22;3.22;;;17.00;99.90;;;;;;5000283;28;20114;-69
2023/09/04 00:34:32;;;;;;;11.13;3.67;;;16.80;99.90;;;;;;5000104;28;20027;-69
2023/09/04 00:36:58;;;;;;;5.70;3.78;;;16.80;99.90;;;;;;5000043;28;20053;-69
2023/09/04 00:39:23;;;;;;;7.20;3.17;;;16.80;99.90;;;;;;5000240;28;20090;-64
2023/09/04 00:41:49;;;;;;;5.03;3.03;;;16.80;99.90;;;;;;4999956;28;20121;-70
2023/09/04 00:44:15;;;;;;;10.70;2.95;;;16.90;99.90;;;;;;4999765;28;20033;-65
2023/09/04 00:46:42;;;;;;;6.50;3.60;;;16.80;99.90;;;;;;5000598;28;20085;-65
2023/09/04 00:49:09;;;;;;;4.95;3.00;;;16.80;99.90;;;;;;5000055;28;20033;-64
2023/09/04 00:51:35;;;;;;;6.70;3.30;;;16.80;99.90;;;;;;5000518;28;20133;-64
2023/09/04 00:54:01;;;;;;;4.40;3.00;;;16.70;99.90;;;;;;4999930;28;20054;-64
2023/09/04 00:56:26;;;;;;;5.93;3.08;;;16.70;99.90;;;;;;4999995;28;20030;-64
2023/09/04 00:58:52;;;;;;;4.63;3.20;;;16.70;99.90;;;;;;4999995;28;20029;-64
2023/09/04 01:01:18;;;;;;;5.40;2.90;;;16.60;99.90;;;;;;4999433;28;20033;-64
2023/09/04 01:03:44;;;;;;;10.60;3.08;;;16.60;99.90;;;;;;5000322;28;20057;-64
2023/09/04 01:06:09;;;;;;;8.18;3.30;;;16.50;99.90;;;;;;4999247;28;20062;-64
2023/09/04 01:08:36;;;;;;;4.28;2.80;;;16.50;99.90;;;;;;4999338;28;20026;-69
2023/09/04 01:11:26;;;;;;;9.48;3.15;;;16.50;99.90;;;;;;4999622;28;20090;-70
2023/09/04 01:13:54;;;;;;;5.95;3.28;;;16.40;99.90;;;;;;5000180;28;20026;-70
2023/09/04 01:16:22;;;;;;;5.80;3.28;;;16.30;99.90;;;;;;4999492;28;20040;-70
2023/09/04 01:18:48;;;;;;;5.63;2.92;;;16.30;99.90;;;;;;4999197;28;20037;-64
2023/09/04 01:21:14;;;;;;;6.43;2.65;;;16.20;99.90;;;;;;4999389;28;20030;-64
2023/09/04 01:23:39;;;;;;;7.20;3.17;;;16.30;99.90;;;;;;4999672;28;20033;-64
2023/09/04 01:26:20;;;;;;;4.63;2.97;;;16.20;99.90;;;;;;4999042;28;20022;-64
2023/09/04 01:29:04;;;;;;;6.13;3.40;;;16.10;99.90;;;;;;4999654;28;20076;-64
2023/09/04 01:31:34;;;;;;;6.18;2.67;;;16.20;99.90;;;;;;4998947;28;20037;-64
2023/09/04 01:34:08;;;;;;;3.10;2.80;;;16.20;99.90;;;;;;4999660;28;20026;-64
2023/09/04 01:36:34;;;;;;;3.53;2.97;;;16.10;99.90;;;;;;4999216;28;20058;-64
2023/09/04 01:39:01;;;;;;;3.50;2.60;;;16.10;99.90;;;;;;4999078;28;20046;-64
2023/09/04 01:41:26;;;;;;;5.32;3.28;;;15.90;99.90;;;;;;4999017;28;20030;-64
2023/09/04 01:43:53;;;;;;;7.53;3.50;;;16.00;99.90;;;;;;4999537;28;20109;-65
2023/09/04 01:46:19;;;;;;;8.40;3.40;;;15.90;99.90;;;;;;4998675;28;20022;-69
2023/09/04 01:48:45;;;;;;;4.82;3.15;;;16.00;99.90;;;;;;4998831;28;20076;-69
2023/09/04 01:51:10;;;;;;;4.88;2.97;;;15.90;99.90;;;;;;4998509;28;20077;-69
2023/09/04 01:53:36;;;;;;;5.35;2.95;;;15.80;99.90;;;;;;4998498;28;20046;-69
2023/09/04 01:56:01;;;;;;;5.38;3.30;;;15.80;99.90;;;;;;4998722;28;20030;-65
2023/09/04 01:58:28;;;;;;;3.38;2.90;;;15.80;99.90;;;;;;4998718;28;20108;-65
2023/09/04 02:00:53;;;;;;;4.43;2.75;;;15.90;99.90;;;;;;4998255;28;20026;-65
2023/09/04 02:03:19;;;;;;;4.40;3.13;;;15.90;99.90;;;;;;4998404;28;20019;-65
2023/09/04 02:05:45;;;;;;;4.78;2.75;;;15.80;99.90;;;;;;4998269;28;20026;-65
2023/09/04 02:08:10;;;;;;;5.55;3.10;;;15.80;99.90;;;;;;4998724;28;20113;-64
2023/09/04 02:10:36;;;;;;;5.07;2.30;;;15.70;99.90;;;;;;4998342;28;20105;-64
2023/09/04 02:13:02;;;;;;;3.53;2.90;;;15.70;99.90;;;;;;4998184;28;20093;-70
2023/09/04 02:15:31;;;;;;;4.38;3.20;;;15.60;99.90;;;;;;4998396;28;20034;-70
2023/09/04 02:18:02;;;;;;;5.75;3.10;;;15.60;99.90;;;;;;4998834;28;20034;-70
2023/09/04 02:20:28;;;;;;;3.85;2.97;;;15.60;99.90;;;;;;4998747;28;20034;-69
2023/09/04 02:22:53;;;;;;;5.28;2.85;;;15.60;99.90;;;;;;4998287;28;20023;-69
2023/09/04 02:25:19;;;;;;;6.63;3.30;;;15.60;99.90;;;;;;4998117;28;20027;-69
2023/09/04 02:27:44;;;;;;;7.10;3.33;;;15.60;99.90;;;;;;4998222;28;20029;-70
2023/09/04 02:30:10;;;;;;;6.88;3.63;;;15.60;99.90;;;;;;4998116;28;20038;-71
2023/09/04 02:32:36;;;;;;;4.63;3.10;;;15.50;99.90;;;;;;4997999;28;20036;-70
2023/09/04 02:35:01;;;;;;;7.28;2.92;;;15.50;99.90;;;;;;4998195;28;20037;-71
2023/09/04 02:37:27;;;;;;;6.85;2.80;;;15.50;99.90;;;;;;4997766;28;20041;-70
2023/09/04 02:39:52;;;;;;;10.80;3.03;;;15.50;99.90;;;;;;4998262;28;20026;-71
2023/09/04 02:42:18;;;;;;;4.93;2.85;;;15.50;99.90;;;;;;4998631;28;20026;-70
2023/09/04 02:44:44;;;;;;;6.53;3.22;;;15.50;99.90;;;;;;4997674;28;20025;-70
2023/09/04 02:47:09;;;;;;;4.32;3.05;;;15.40;99.90;;;;;;4997293;28;20033;-70
2023/09/04 02:49:35;;;;;;;6.57;3.22;;;15.40;99.90;;;;;;4997750;28;20098;-64
2023/09/04 02:52:00;;;;;;;4.15;2.97;;;15.40;99.90;;;;;;4997762;28;20030;-64
2023/09/04 02:54:26;;;;;;;5.22;3.20;;;15.40;99.90;;;;;;4998317;28;20026;-69
2023/09/04 02:56:51;;;;;;;4.88;2.95;;;15.40;99.90;;;;;;4997537;28;20027;-69
2023/09/04 02:59:17;;;;;;;5.45;3.60;;;15.40;99.90;;;;;;4997634;28;20031;-69
2023/09/04 03:01:42;;;;;;;6.85;3.40;;;15.40;99.90;;;;;;4997204;28;20033;-69
2023/09/04 03:04:08;;;;;;;10.93;3.13;;;15.30;99.90;;;;;;4997576;28;20018;-69
2023/09/04 03:06:33;;;;;;;7.68;3.30;;;15.30;99.90;;;;;;4997568;28;20109;-69
2023/09/04 03:08:59;;;;;;;4.43;3.25;;;15.20;99.90;;;;;;4997101;28;20022;-69
2023/09/04 03:11:25;;;;;;;4.15;3.10;;;15.20;99.90;;;;;;4997213;28;20033;-64
2023/09/04 03:13:50;;;;;;;7.30;3.40;;;15.10;99.90;;;;;;4997829;28;20031;-64
2023/09/04 03:16:16;;;;;;;7.68;3.67;;;15.10;99.90;;;;;;5015373;22;20038;-64
2023/09/04 03:18:41;;;;;;;8.00;3.28;;;15.00;99.90;;;;;;4978457;28;20106;-64
2023/09/04 03:21:08;;;;;;;5.68;3.47;;;14.90;99.90;;;;;;5010677;28;20125;-65
2023/09/04 03:23:34;;;;;;;8.63;3.92;;;15.00;99.90;;;;;;4978338;28;20023;-64
2023/09/04 03:26:00;;;;;;;4.10;2.90;;;15.10;99.90;;;;;;5010116;28;20034;-65
2023/09/04 03:28:25;;;;;;;5.25;3.72;;;15.10;99.90;;;;;;5010139;28;20027;-64
2023/09/04 03:30:51;;;;;;;5.80;2.88;;;15.00;99.90;;;;;;5009844;28;20085;-64
2023/09/04 03:33:16;;;;;;;4.20;3.22;;;15.00;99.90;;;;;;5009975;28;20049;-64
2023/09/04 03:35:42;;;;;;;7.50;3.60;;;15.00;99.90;;;;;;5010125;28;20027;-64
2023/09/04 03:38:07;;;;;;;5.47;3.47;;;14.90;99.90;;;;;;5009886;28;20031;-64
2023/09/04 03:40:33;;;;;;;4.80;3.28;;;14.90;99.90;;;;;;5009884;28;20031;-64
2023/09/04 03:42:58;;;;;;;11.65;3.83;;;14.90;99.90;;;;;;5009874;28;20027;-65
2023/09/04 03:45:24;;;;;;;5.28;2.88;;;14.90;99.90;;;;;;4978283;28;20023;-64
2023/09/04 03:47:50;;;;;;;8.55;3.83;;;14.90;99.90;;;;;;5010519;28;20022;-65
2023/09/04 03:50:16;;;;;;;7.93;3.63;;;15.00;99.90;;;;;;4978401;28;20031;-65
2023/09/04 03:52:42;;;;;;;6.57;3.30;;;15.00;99.90;;;;;;5009789;28;20141;-65
2023/09/04 03:55:10;;;;;;;5.88;3.83;;;15.00;99.90;;;;;;5009731;28;20031;-64
2023/09/04 03:57:36;;;;;;;4.57;3.10;;;15.00;99.90;;;;;;4977994;28;20038;-64
2023/09/04 04:00:03;;;;;;;9.02;3.50;;;15.00;99.90;;;;;;4981835;28;20023;-64
2023/09/04 04:02:29;;;;;;;7.90;3.70;;;15.00;99.90;;;;;;5014531;28;20121;-64
2023/09/04 04:04:54;;;;;;;7.72;3.53;;;15.00;99.90;;;;;;5014436;28;20113;-65
2023/09/04 04:07:20;;;;;;;7.50;3.97;;;15.00;99.90;;;;;;5014017;28;20075;-64
2023/09/04 04:09:47;;;;;;;6.60;3.35;;;14.90;99.90;;;;;;5013600;28;20018;-65
2023/09/04 04:12:14;;;;;;;13.80;3.58;;;14.80;99.90;;;;;;5013742;28;20027;-64
2023/09/04 04:14:40;;;;;;;5.15;3.28;;;14.80;99.90;;;;;;4982006;28;20035;-64
2023/09/04 04:17:08;;;;;;;4.07;2.97;;;14.70;99.90;;;;;;5013385;28;20031;-64
2023/09/04 04:19:33;;;;;;;5.20;3.53;;;14.60;99.90;;;;;;5013499;28;20034;-64
2023/09/04 04:21:59;;;;;;;6.78;3.50;;;14.50;99.90;;;;;;5013701;28;20023;-64
2023/09/04 04:24:24;;;;;;;4.82;2.92;;;14.60;99.90;;;;;;5013951;28;20030;-65
2023/09/04 04:26:50;;;;;;;7.75;3.28;;;14.50;99.90;;;;;;5013358;28;20058;-65
2023/09/04 04:29:15;;;;;;;14.35;3.95;;;14.40;99.90;;;;;;5013333;28;20027;-65
2023/09/04 04:31:41;;;;;;;4.97;3.70;;;14.40;99.90;;;;;;5013051;28;20022;-66
2023/09/04 04:34:06;;;;;;;6.80;3.25;;;14.40;99.90;;;;;;4981531;28;20019;-66
2023/09/04 04:36:32;;;;;;;7.60;3.22;;;14.40;99.90;;;;;;4981368;28;20026;-66
2023/09/04 04:38:58;;;;;;;5.28;2.33;;;14.40;99.90;;;;;;5013054;28;20037;-67
2023/09/04 04:41:23;;;;;;;3.47;1.80;;;14.30;99.90;;;;;;4981192;28;20054;-66
2023/09/04 04:43:49;;;;;;;8.48;2.50;;;14.10;99.90;;;;;;5013673;28;20029;-66
2023/09/04 04:46:17;;;;;;;4.45;2.58;;;14.10;99.90;;;;;;4980883;28;20019;-66
2023/09/04 04:48:42;;;;;;;6.72;2.35;;;14.00;99.90;;;;;;4981151;28;20077;-66
2023/09/04 04:51:10;;;;;;;3.33;2.88;;;14.00;99.90;;;;;;5012855;28;20035;-66
2023/09/04 04:53:36;;;;;;;3.30;2.42;;;13.70;99.90;;;;;;5013638;28;20023;-66
2023/09/04 04:56:02;;;;;;;2.85;2.40;;;13.70;99.90;;;;;;5012667;28;20081;-66
2023/09/04 04:58:27;;;;;;;3.25;2.30;;;13.60;99.90;;;;;;5012711;28;20110;-66
2023/09/04 05:00:53;;;;;;;4.40;2.63;;;13.70;99.90;;;;;;5012731;28;20035;-66
2023/09/04 05:03:19;;;;;;;5.55;2.42;;;13.70;99.90;;;;;;5012526;28;20019;-66
2023/09/04 05:05:45;;;;;;;4.85;2.03;;;13.80;99.90;;;;;;5013220;28;20098;-66
2023/09/04 05:08:11;;;;;;;6.20;2.10;;;13.70;99.90;;;;;;4979904;28;20019;-66
2023/09/04 05:10:36;;;;;;;2.75;2.22;;;13.80;99.90;;;;;;4980667;28;20046;-66
2023/09/04 05:13:02;;;;;;;3.33;1.85;;;13.90;99.90;;;;;;4980708;28;20052;-66
2023/09/04 05:15:27;;;;;;;4.15;2.67;;;13.80;99.90;;;;;;5012235;28;20081;-66
2023/09/04 05:17:53;;;;;;;4.13;2.55;;;13.90;99.90;;;;;;5012241;28;20116;-66
2023/09/04 05:20:18;;;;;;;4.13;3.10;;;13.90;99.90;;;;;;5012085;28;20039;-66
2023/09/04 05:22:44;;;;;;;11.90;3.47;;;14.10;99.90;;;;;;4979744;28;20018;-66
2023/09/04 05:25:11;;;;;;;6.28;3.00;;;14.10;99.90;;;;;;5012295;28;20045;-66
2023/09/04 05:27:37;;;;;;;5.75;3.50;;;14.10;99.90;;;;;;4980423;28;20095;-66
2023/09/04 05:30:03;;;;;;;4.22;3.08;;;14.30;99.90;;;;;;5012074;28;20030;-66
2023/09/04 05:32:28;;;;;;;8.48;2.58;;;14.30;99.90;;;;;;4979719;28;20030;-67
2023/09/04 05:34:54;;;;;;;7.10;2.90;;;14.20;99.90;;;;;;5012459;28;20090;-67
2023/09/04 05:37:21;;;;;;;3.95;2.70;;;14.20;99.90;;;;;;5011996;28;20030;-66
2023/09/04 05:39:46;;;;;;;7.25;3.00;;;14.30;99.90;;;;;;5011747;28;20050;-66
2023/09/04 05:42:12;;;;;;;3.88;3.17;;;14.20;99.90;;;;;;5012061;28;20162;-66
2023/09/04 05:44:38;;;;;;;5.10;3.08;;;14.30;99.90;;;;;;5012205;28;20094;-66
2023/09/04 05:47:04;;;;;;;3.80;2.85;;;14.40;99.90;;;;;;5011771;28;20023;-67
2023/09/04 05:49:29;;;;;;;3.38;2.83;;;14.40;99.90;;;;;;5012371;28;20029;-67
2023/09/04 05:51:55;;;;;;;5.20;3.00;;;14.50;99.90;;;;;;4980120;28;20023;-66
2023/09/04 05:54:22;;;;;;;5.50;3.20;;;14.40;99.90;;;;;;5011703;28;20122;-66
2023/09/04 05:56:48;;;;;;;5.68;3.15;;;14.40;99.90;;;;;;4979853;28;20023;-66
2023/09/04 05:59:14;;;;;;;6.50;3.08;;;14.30;99.90;;;;;;5011566;28;20126;-67
2023/09/04 06:01:40;;;;;;;5.50;3.10;;;14.50;99.90;;;;;;4978801;28;20058;-66
2023/09/04 06:04:05;;;;;;;4.70;3.30;;;14.60;99.90;;;;;;5011667;28;20023;-66
2023/09/04 06:06:31;;;;;;;5.47;2.97;;;14.80;99.90;;;;;;5011359;28;20038;-66
2023/09/04 06:08:56;;;;;;;4.47;3.15;;;14.80;99.90;;;;;;5012188;28;20026;-66
2023/09/04 06:11:22;;;;;;;3.65;2.92;;;14.80;99.90;;;;;;5012174;28;20027;-67
2023/09/04 06:13:48;;;;;;;4.90;3.40;;;14.80;99.90;;;;;;5011685;28;20081;-67
2023/09/04 06:16:17;;;;;;;4.07;3.22;;;14.80;99.90;;;;;;5011542;28;20058;-66
2023/09/04 06:18:42;;;;;;;5.20;3.15;;;14.80;99.90;;;;;;5011381;28;20023;-66
2023/09/04 06:21:08;;;;;;;5.15;3.03;;;14.90;99.90;;;;;;5010557;28;20042;-66
2023/09/04 06:23:34;;;;;;;4.88;3.35;;;15.10;99.90;;;;;;4979774;28;20015;-66
2023/09/04 06:26:03;;;;;;;4.45;3.28;;;14.90;99.90;;;;;;5011288;28;20055;-66
2023/09/04 06:28:29;;;;;;;4.43;2.88;;;14.90;99.90;;;;;;5011057;28;20026;-66
2023/09/04 06:30:57;;;;;;;5.30;3.05;;;15.10;99.90;;;;;;5010903;28;20027;-66
2023/09/04 06:33:25;;;;;;;5.60;3.30;;;15.10;99.90;;;;;;4979279;28;20082;-66
2023/09/04 06:35:50;;;;;;;9.00;3.33;;;15.20;99.90;;;;;;5011200;28;20061;-66
2023/09/04 06:38:16;;;;;;;4.40;3.33;;;15.20;99.90;;;;;;5011110;28;20062;-66
2023/09/04 06:40:42;;;;;;;5.25;3.38;;;15.20;99.90;;;;;;4978699;28;20062;-66
2023/09/04 06:43:08;;;;;;;5.28;3.42;;;15.40;99.90;;;;;;5011080;28;20026;-66
2023/09/04 06:45:36;;;;;;;4.43;3.22;;;15.40;99.90;;;;;;5010622;28;20110;-66
2023/09/04 06:48:02;;;;;;;4.80;3.25;;;15.40;99.90;;;;;;5010635;28;20027;-66
2023/09/04 06:50:27;;;;;;;5.55;3.45;;;15.50;99.90;;;;;;4978827;28;20033;-66
2023/09/04 06:52:53;;;;;;;5.30;3.20;;;15.50;99.90;;;;;;5010850;28;20027;-66
2023/09/04 06:55:18;;;;;;;8.07;3.60;;;15.40;99.90;;;;;;5010546;28;20122;-66
2023/09/04 06:57:44;;;;;;;4.63;3.53;;;15.40;99.90;;;;;;4978177;28;20027;-66
2023/09/04 07:00:11;;;;;;;6.53;3.35;;;15.40;99.90;;;;;;5010378;28;20027;-67
2023/09/04 07:02:37;;;;;;;4.55;3.03;;;15.60;99.90;;;;;;4979268;28;20019;-67
2023/09/04 07:05:04;;;;;;;5.00;3.05;;;15.90;99.90;;;;;;4977743;28;20026;-66
2023/09/04 07:07:31;;;;;;;5.03;3.10;;;16.00;99.90;;;;;;5010321;28;20055;-66
2023/09/04 07:09:56;;;;;;;6.65;3.20;;;16.00;99.90;;;;;;4977950;28;20022;-67
2023/09/04 07:12:22;;;;;;;4.80;2.90;;;16.20;99.90;;;;;;4979097;28;20019;-67
2023/09/04 07:14:47;;;;;;;7.82;2.67;;;16.30;99.90;;;;;;5011006;28;20027;-67
2023/09/04 07:17:13;;;;;;;4.10;2.83;;;16.30;99.90;;;;;;5010146;28;20086;-68
2023/09/04 07:19:39;;;;;;;3.10;2.67;;;16.40;99.90;;;;;;5010079;28;20026;-67
2023/09/04 07:22:04;;;;;;;6.00;3.00;;;16.50;99.90;;;;;;5010152;28;20077;-66
2023/09/04 07:24:30;;;;;;;8.57;2.97;;;16.50;99.90;;;;;;5010736;28;20014;-66
2023/09/04 07:26:55;;;;;;;3.83;2.78;;;16.50;99.90;;;;;;5010700;28;20081;-66
2023/09/04 07:29:21;;;;;;;5.13;2.50;;;16.60;99.90;;;;;;4978333;28;20027;-65
2023/09/04 07:31:47;;;;;;;7.05;2.67;;;16.70;99.90;;;;;;5010024;28;20027;-66
2023/09/04 07:34:12;;;;;;;3.33;2.33;;;16.80;99.90;;;;;;5010376;28;20046;-64
2023/09/04 07:36:38;;;;;;;2.90;1.90;;;16.90;99.90;;;;;;4978226;28;20057;-63
2023/09/04 07:39:04;;;;;;;3.47;2.65;;;17.00;99.90;;;;;;4977414;28;20029;-64
2023/09/04 07:41:30;;;;;;;4.13;2.58;;;17.00;99.90;;;;;;4977394;28;20030;-64
2023/09/04 07:43:56;;;;;;;4.55;2.45;;;17.00;99.90;;;;;;4978247;28;20023;-63
2023/09/04 07:46:21;;;;;;;4.50;2.65;;;17.10;99.90;;;;;;5009777;28;20034;-64
2023/09/04 07:48:47;;;;;;;4.15;2.30;;;17.20;99.90;;;;;;5010697;28;20023;-64
2023/09/04 07:51:12;;;;;;;2.92;2.20;;;17.30;99.90;;;;;;4977663;28;20078;-64
2023/09/04 07:53:38;;;;;;;3.15;2.40;;;17.30;99.90;;;;;;5010107;28;20034;-64
2023/09/04 07:56:04;;;;;;;3.50;2.20;;;17.30;99.90;;;;;;5010245;28;20035;-64
2023/09/04 07:58:29;;;;;;;4.75;2.60;;;17.40;99.90;;;;;;4977586;28;20033;-64
2023/09/04 08:00:55;;;;;;;4.30;2.63;;;17.40;99.90;;;;;;5009986;28;20035;-64
2023/09/04 08:03:20;;;;;;;6.20;2.85;;;17.50;99.90;;;;;;5010051;28;20031;-64
2023/09/04 08:05:46;;;;;;;3.10;2.38;;;17.60;99.90;;;;;;4978031;28;20037;-64
2023/09/04 08:08:11;;;;;;;2.80;2.28;;;17.70;99.90;;;;;;4977953;28;20058;-64
2023/09/04 08:10:43;;;;;;;9.32;3.03;;;17.70;99.90;;;;;;5009545;28;20050;-64
2023/09/04 08:13:17;;;;;;;3.92;2.40;;;17.80;99.90;;;;;;5010387;28;20088;-64
2023/09/04 08:15:44;;;;;;;6.20;2.78;;;17.90;99.90;;;;;;5009394;28;20046;-64
2023/09/04 08:18:09;;;;;;;3.47;2.58;;;18.00;99.90;;;;;;5010389;28;20046;-64
2023/09/04 08:20:36;;;;;;;4.70;2.65;;;18.00;99.90;;;;;;4976946;28;20027;-64
2023/09/04 08:23:02;;;;;;;4.18;2.38;;;18.10;99.90;;;;;;5010309;28;20033;-64
2023/09/04 08:25:28;;;;;;;4.03;2.38;;;18.20;99.90;;;;;;4977725;28;20030;-64
2023/09/04 08:27:53;;;;;;;3.50;2.30;;;18.20;99.90;;;;;;5009452;28;20038;-64
2023/09/04 08:30:19;;;;;;;3.65;2.40;;;18.30;99.90;;;;;;4978395;28;20039;-64
2023/09/04 08:32:45;;;;;;;4.72;2.35;;;18.40;99.90;;;;;;5009424;28;20034;-64
2023/09/04 08:35:11;;;;;;;2.35;1.95;;;18.70;99.90;;;;;;4978026;28;20030;-64
2023/09/04 08:37:37;;;;;;;4.03;2.33;;;18.80;99.90;;;;;;5009487;28;20082;-64
2023/09/04 08:40:02;;;;;;;8.27;2.83;;;18.90;99.90;;;;;;5010102;28;20030;-65
2023/09/04 08:42:29;;;;;;;4.32;2.25;;;19.00;99.90;;;;;;4978257;28;20019;-65
2023/09/04 08:44:56;;;;;;;3.72;2.60;;;19.00;99.90;;;;;;5011361;28;20027;-64
2023/09/04 08:47:22;;;;;;;5.80;3.20;;;19.10;99.90;;;;;;5013576;28;20019;-64
2023/09/04 08:49:48;;;;;;;5.25;2.47;;;19.30;99.90;;;;;;5012850;28;20110;-64
2023/09/04 08:52:14;;;;;;;4.22;2.90;;;19.30;99.90;;;;;;4980681;28;20050;-64
2023/09/04 08:54:40;;;;;;;6.28;2.70;;;19.30;99.90;;;;;;5012729;28;20169;-64
2023/09/04 08:57:08;;;;;;;4.50;2.47;;;19.40;99.90;;;;;;5013393;28;20023;-64
2023/09/04 08:59:33;;;;;;;6.28;2.25;;;19.40;99.90;;;;;;5013067;28;20019;-64
2023/09/04 09:02:03;;;;;;;3.88;2.22;;;19.50;99.90;;;;;;4980883;28;20033;-64
2023/09/04 09:04:30;;;;;;;3.45;2.70;;;19.60;99.90;;;;;;4980036;28;20026;-64
2023/09/04 09:06:57;;;;;;;10.57;2.00;;;19.70;99.90;;;;;;5012422;28;20031;-64
2023/09/04 09:09:23;;;;;;;4.65;2.08;;;20.00;99.90;;;;;;5013376;28;20029;-64
2023/09/04 09:11:54;;;;;;;3.80;1.55;;;20.10;99.90;;;;;;5012560;28;20026;-64
2023/09/04 09:14:20;;;;;;;2.80;1.15;;;20.40;99.90;;;;;;5013231;28;20038;-64
2023/09/04 09:16:45;;;;;;;3.25;1.45;;;20.60;99.90;;;;;;5043715;22;20038;-70
2023/09/04 09:19:13;;;;;;;6.00;2.03;;;20.70;99.90;;;;;;4999220;28;20105;-70
2023/09/04 09:21:39;;;;;;;4.53;1.80;;;20.90;99.90;;;;;;4999194;28;20026;-70
2023/09/04 09:24:08;;;;;;;3.47;1.77;;;21.00;99.90;;;;;;4999390;28;20019;-70
2023/09/04 09:26:34;;;;;;;2.00;1.75;;;21.10;99.90;;;;;;5000153;28;20057;-70
2023/09/04 09:29:03;;;;;;;2.65;1.77;;;21.30;99.90;;;;;;4999224;28;20034;-70
2023/09/04 09:31:30;;;;;;;2.13;1.60;;;21.40;99.90;;;;;;5000254;28;20077;-70
2023/09/04 09:33:55;;;;;;;4.20;1.67;;;21.50;99.90;;;;;;4999899;28;20025;-70
2023/09/04 09:36:21;;;;;;;2.60;1.60;;;21.70;99.90;;;;;;4999413;28;20022;-70
2023/09/04 09:38:47;;;;;;;3.30;2.15;;;21.80;99.90;;;;;;4998860;28;20023;-70
2023/09/04 09:41:13;;;;;;;2.85;2.30;;;21.80;99.90;;;;;;4998675;28;20026;-70
2023/09/04 09:43:40;;;;;;;3.83;2.47;;;21.80;99.90;;;;;;5000154;28;20106;-70
2023/09/04 09:46:09;;;;;;;2.97;1.75;;;21.80;99.90;;;;;;4999097;28;20046;-70
2023/09/04 09:48:40;;;;;;;3.28;2.15;;;21.90;99.90;;;;;;4998824;28;20022;-70
2023/09/04 09:51:06;;;;;;;4.97;2.30;;;21.90;99.90;;;;;;4999602;28;20056;-70
2023/09/04 09:53:52;;;;;;;8.23;2.00;;;22.00;99.90;;;;;;4999373;28;20027;-70
2023/09/04 09:56:18;;;;;;;5.85;3.10;;;22.20;99.90;;;;;;4998544;28;20022;-70
2023/09/04 09:58:49;;;;;;;4.00;2.13;;;22.20;99.90;;;;;;4998554;28;20022;-70
2023/09/04 10:01:16;;;;;;;3.40;1.98;;;22.40;99.90;;;;;;4999199;28;20026;-70
2023/09/04 10:03:44;;;;;;;2.38;1.88;;;22.40;99.90;;;;;;4999335;28;20101;-70
2023/09/04 10:06:14;;;;;;;2.15;1.75;;;22.50;99.90;;;;;;4998925;28;20053;-70
2023/09/04 10:08:42;;;;;;;3.15;1.63;;;22.70;99.90;;;;;;4998407;28;20027;-70
2023/09/04 10:11:12;;;;;;;5.95;1.90;;;22.70;99.90;;;;;;4998262;28;20026;-70
2023/09/04 10:13:45;;;;;;;1.70;1.60;;;22.90;99.90;;;;;;4998254;28;20030;-70
2023/09/04 10:16:15;;;;;;;2.45;1.55;;;23.00;99.90;;;;;;4998714;28;20042;-70
2023/09/04 10:18:46;;;;;;;4.60;1.60;;;23.40;99.90;;;;;;4999608;28;20037;-70
2023/09/04 10:21:14;;;;;;;2.55;1.52;;;23.60;99.90;;;;;;4998829;28;20030;-70
2023/09/04 10:23:52;;;;;;;2.60;1.70;;;23.80;99.90;;;;;;4998969;28;20030;-70
2023/09/04 10:26:35;;;;;;;3.15;1.52;;;24.00;99.90;;;;;;4998270;28;20116;-70
2023/09/04 10:29:10;;;;;;;3.58;1.63;;;24.30;99.90;;;;;;4998864;28;20022;-71
2023/09/04 10:31:38;;;;;;;2.85;1.48;;;24.30;99.90;;;;;;4997916;28;20030;-70
2023/09/04 10:34:03;;;;;;;2.92;1.60;;;24.60;99.90;;;;;;4997966;28;20026;-70
2023/09/04 10:36:30;;;;;;;2.60;1.98;;;24.80;99.90;;;;;;4998774;28;20030;-70
2023/09/04 10:39:00;;;;;;;4.80;1.65;;;25.10;99.90;;;;;;4999226;28;20053;-70
2023/09/04 10:41:28;;;;;;;1.45;1.13;;;25.30;99.90;;;;;;4997668;28;20026;-70
2023/09/04 10:43:53;;;;;;;5.18;1.33;;;25.50;99.90;;;;;;4997637;28;20106;-70
2023/09/04 10:46:20;;;;;;;2.75;1.92;;;25.60;99.90;;;;;;4998727;28;20053;-70
2023/09/04 10:48:48;;;;;;;2.38;1.40;;;25.80;99.90;;;;;;4998032;28;20081;-70
2023/09/04 10:51:32;;;;;;;3.33;1.55;;;25.80;99.90;;;;;;4998499;28;20054;-70
2023/09/04 10:54:03;;;;;;;2.00;1.20;;;25.80;99.90;;;;;;4997460;28;20022;-70
2023/09/04 10:56:53;;;;;;;1.42;1.25;;;25.80;99.90;;;;;;4998177;28;20049;-70
2023/09/04 10:59:19;;;;;;;1.40;1.20;;;26.10;99.90;;;;;;4998250;28;20084;-64
2023/09/04 11:01:46;;;;;;;2.60;1.13;;;26.20;99.90;;;;;;4997372;28;20038;-64
2023/09/04 11:04:29;;;;;;;1.80;1.70;;;26.30;99.90;;;;;;4997251;28;20054;-64
2023/09/04 11:07:20;;;;;;;2.80;1.50;;;26.50;99.90;;;;;;4997685;28;20033;-64
2023/09/04 11:09:58;;;;;;;2.38;1.20;;;26.80;99.90;;;;;;4997159;28;20022;-64
2023/09/04 11:12:25;;;;;;;2.30;1.17;;;26.60;99.90;;;;;;4997227;28;20081;-64
2023/09/04 11:14:55;;;;;;;2.15;1.33;;;26.50;99.90;;;;;;4997071;28;20026;-64
2023/09/04 11:17:29;;;;;;;2.42;1.00;;;26.90;99.90;;;;;;4997769;28;20034;-64
2023/09/04 11:19:55;;;;;;;1.38;1.27;;;27.20;99.90;;;;;;4997839;28;20146;-64
2023/09/04 11:22:22;;;;;;;2.55;1.10;;;27.30;99.90;;;;;;4997999;28;20029;-66
2023/09/04 11:24:49;;;;;;;1.52;1.00;;;27.40;99.90;;;;;;4997787;28;20026;-64
2023/09/04 11:27:15;;;;;;;1.25;1.10;;;27.50;99.90;;;;;;4997388;28;20022;-64
2023/09/04 11:29:40;;;;;;;1.50;1.10;;;27.60;99.90;;;;;;4997232;28;20033;-64
2023/09/04 11:32:07;;;;;;;3.35;1.38;;;27.60;99.90;;;;;;4997170;28;20041;-64
2023/09/04 11:34:33;;;;;;;1.23;1.10;;;27.80;99.90;;;;;;4997760;28;20026;-64
2023/09/04 11:36:59;;;;;;;1.10;1.00;;;28.00;99.90;;;;;;4997628;28;20037;-64
2023/09/04 11:39:24;;;;;;;1.48;1.38;;;27.70;99.90;;;;;;4996787;28;20031;-64
2023/09/04 11:41:50;;;;;;;2.15;1.23;;;28.20;99.90;;;;;;4996656;28;20042;-64
2023/09/04 11:44:16;;;;;;;1.10;1.00;;;28.30;99.90;;;;;;4997138;28;20019;-64
2023/09/04 11:46:43;;;;;;;2.15;1.00;;;28.30;99.90;;;;;;4996905;28;20026;-64
2023/09/04 11:49:09;;;;;;;1.27;1.10;;;28.60;99.90;;;;;;4996751;28;20072;-64
2023/09/04 11:51:36;;;;;;;2.03;1.38;;;28.30;99.90;;;;;;4996797;28;20023;-64
2023/09/04 11:54:08;;;;;;;1.55;1.17;;;28.40;99.90;;;;;;4996742;28;20034;-64
2023/09/04 11:56:34;;;;;;;2.55;1.40;;;28.50;99.90;;;;;;4996753;28;20037;-64
2023/09/04 11:59:02;;;;;;;1.80;1.10;;;28.70;99.90;;;;;;4996672;28;20026;-64
2023/09/04 12:01:28;;;;;;;1.63;1.00;;;29.10;99.90;;;;;;4996514;28;20034;-64
2023/09/04 12:03:54;;;;;;;2.00;1.00;;;29.20;99.90;;;;;;4996690;28;20034;-65
2023/09/04 12:06:25;;;;;;;1.27;1.00;;;29.20;99.90;;;;;;4997625;28;20202;-64
2023/09/04 12:08:51;;;;;;;1.88;1.02;;;29.20;97.50;;;;;;4996714;28;20030;-64
2023/09/04 12:11:16;;;;;;;2.85;1.10;;;29.50;94.50;;;;;;4996587;28;20023;-64
2023/09/04 12:13:42;;;;;;;1.65;1.05;;;30.00;92.40;;;;;;4996805;28;20026;-65
2023/09/04 12:16:09;;;;;;;1.13;1.00;;;30.50;90.40;;;;;;4998405;28;20085;-69
2023/09/04 12:18:36;;;;;;;2.05;1.23;;;30.20;90.40;;;;;;4997286;28;20053;-69
2023/09/04 12:21:06;;;;;;;1.40;1.10;;;30.20;90.70;;;;;;5000330;28;20026;-69
2023/09/04 12:23:39;;;;;;;2.88;1.33;;;29.90;87.70;;;;;;5000380;28;20026;-69
2023/09/04 12:26:05;;;;;;;1.30;1.20;;;29.50;87.50;;;;;;5000472;28;20022;-69
2023/09/04 12:28:31;;;;;;;1.85;1.20;;;29.60;89.60;;;;;;5000114;28;20026;-69
2023/09/04 12:30:56;;;;;;;1.67;1.40;;;30.40;88.00;;;;;;5000116;28;20084;-70
2023/09/04 12:33:28;;;;;;;2.20;1.10;;;30.40;82.70;;;;;;5000470;28;20025;-69
2023/09/04 12:35:56;;;;;;;3.00;1.30;;;29.70;81.10;;;;;;5000150;28;20160;-69
2023/09/04 12:38:22;;;;;;;3.05;1.65;;;29.50;78.50;;;;;;5000901;28;20018;-70
2023/09/04 12:40:47;;;;;;;1.50;1.33;;;29.60;80.80;;;;;;4999909;28;20033;-69
2023/09/04 12:43:13;;;;;;;4.40;1.45;;;29.70;80.50;;;;;;4999934;28;20014;-69